Airfield :
LOGIN :

Register | Disclaimer

   EN    FR    IT 

 










Legend :    VFR   Marginal VFR   IFR   Intensive IFR   Very Intensive IFR
Visi :
Ceiling :
>= 8 km
>= 3000ft
5 to 8 km
1000 to 3000 ft
1500m to 5 km
500 to 1000 ft
800 to 1500m
200 to 500 ft
< 800m
< 200 ft
Symbols :   Thunderstorms  Fog  Heavy snow  Heavy precipitations  Wind > 20 kt
SIGMETs :     Misc.  Thunderstorms  Icing  Turbulence  Mountain Waves  Volcanic Ashes







- Airport Elevation : 204 ft
- IATA code : AGF
- Download approach charts


LFBA - Agen

CURRENT METAR :
  • 241330Z AUTO 11005KT 070V160 CAVOK 27/14 Q1018 NOSIG

EXPIRED METARs :
  • 241300Z AUTO 12005KT 080V160 CAVOK 27/14 Q1018 NOSIG
  • 241230Z AUTO 11007KT 060V140 CAVOK 26/15 Q1018 NOSIG
  • 241200Z AUTO 09006KT 070V130 CAVOK 25/15 Q1019 NOSIG
  • 241130Z AUTO 11005KT 070V170 CAVOK 24/15 Q1019 NOSIG
  • 241100Z AUTO 11005KT 080V160 CAVOK 23/15 Q1019 NOSIG

TAF TAF LFBA
Valid from the 24 at 12:00 until the 24 at 21:00 UTC


241100Z 2412/2421 VRB02KT CAVOK
No reported NOTAMs for that airfield.



MET'MAP, your aeronautical weather chart ! - Copyright ORBIFLY December 2007 - Disclaimer

ORBIFLY MET'MAP TEAM :

Programming & Development : Alexandra Zaïnal
Concept & Development : Baudouin d'Aumeries
Co-Development & Prog : Marc-Olivier Méhu
Technical & hardware support : Manuel Goepfert

Contact : metmap@orbifly.com




SOURCES & CREDITS :

   NOAA